Latest Weather Observations for Leinster

IDW60801

Issued at 9:02 pm WST Saturday 18 April 2015 (issued every 30 minutes, with the page automatically refreshed every 10 minutes)

About weather observations | Map of weather stations | Latest weather observations for WA | Other Formats
Station Details ID: 012314 Name: LEINSTER AERO Lat: -27.84 Lon: 120.70 Height: 497.0 m
Data from the previous 72 hours. | See also: Recent months at Leinster
Date/Time
WST
Temp
°C
App
Temp
°C
Dew
Point
Rel
Hum
%
Delta-T
°C
Wind Press
QNH
hPa
Press
MSL
hPa
Rain
since 9 am
mm
Dir
 
Spd
km/h
Gust
km/h
Spd
kts
Gust
kts
18/09:00pm 17.0 14.5 4.7 44 6.0 E 7 11 4 6 - - -
18/08:30pm 17.8 14.9 4.4 41 6.5 ESE 9 13 5 7 - - -
18/08:00pm 18.0 15.0 4.2 40 6.7 ESE 9 11 5 6 - - -
18/07:30pm 18.2 15.2 4.0 39 6.9 ESE 9 11 5 6 - - -
18/07:00pm 18.9 15.7 3.1 35 7.6 ESE 9 11 5 6 - - -
18/06:30pm 19.9 17.0 2.7 32 8.2 ESE 7 11 4 6 - - -
18/06:00pm 20.9 17.3 2.7 30 8.8 ESE 11 17 6 9 - - -
18/05:30pm 21.6 17.8 3.8 31 8.8 ESE 13 19 7 10 - - -
18/05:00pm 22.3 18.6 4.4 31 9.0 ESE 13 20 7 11 - - -
18/04:30pm 22.7 17.7 3.8 29 9.4 ESE 19 24 10 13 - - -
18/04:00pm 22.9 18.0 3.9 29 9.5 ESE 19 26 10 14 - - -
18/03:30pm 23.3 18.2 3.3 27 9.9 ESE 19 28 10 15 - - -
18/03:00pm 23.4 17.8 3.4 27 9.9 ESE 22 32 12 17 - - -
18/02:30pm 23.6 18.3 3.0 26 10.2 ESE 20 24 11 13 - - -
18/02:00pm 23.5 19.0 4.0 28 9.8 ESE 17 32 9 17 - - -
18/01:30pm 23.1 19.6 5.5 32 9.1 ESE 13 22 7 12 - - -
18/01:00pm 22.6 18.3 5.1 32 8.9 ENE 17 24 9 13 - - -
18/12:30pm 22.3 17.5 4.8 32 8.9 ENE 19 28 10 15 - - -
18/12:00pm 21.9 17.8 6.2 36 8.1 ENE 17 24 9 13 - - -
18/11:30am 20.7 16.1 5.5 37 7.7 E 19 28 10 15 - - -
18/11:00am 20.4 17.1 8.1 45 6.5 E 15 22 8 12 - - -
18/10:30am 19.9 16.3 8.3 47 6.2 E 17 24 9 13 - - -
18/10:00am 18.6 15.6 9.4 55 5.0 E 15 20 8 11 - - -
18/09:30am 17.6 14.9 10.5 63 3.9 E 15 19 8 10 - - -
18/09:00am 16.1 13.9 10.8 71 2.9 ENE 13 17 7 9 - - -
18/08:30am 14.7 12.2 9.7 72 2.7 E 13 20 7 11 - - -
18/08:00am 13.8 11.3 9.8 77 2.1 ENE 13 17 7 9 - - -
18/07:30am 12.5 10.7 9.5 82 1.6 E 9 13 5 7 - - -
18/07:00am 11.8 10.4 9.5 86 1.2 ENE 7 9 4 5 - - -
18/06:30am 11.3 10.0 9.2 87 1.1 E 6 7 3 4 - - -
18/06:00am 11.6 9.7 9.2 85 1.2 ENE 9 11 5 6 - - -
18/05:30am 11.5 10.0 9.2 86 1.2 ENE 7 9 4 5 - - -
18/05:00am 11.7 10.4 9.1 84 1.3 E 6 7 3 4 - - -
18/04:30am 12.0 10.6 9.0 82 1.5 ESE 6 7 3 4 - - -
18/04:00am 12.3 10.9 9.0 80 1.7 E 6 7 3 4 - - -
18/03:30am 12.3 10.9 9.0 80 1.7 ESE 6 9 3 5 - - -
18/03:00am 12.4 10.9 9.2 81 1.7 ESE 7 9 4 5 - - -
18/02:30am 12.6 11.2 9.4 81 1.7 SE 7 11 4 6 - - -
18/02:00am 12.8 11.5 9.8 82 1.6 SE 7 9 4 5 - - -
18/01:30am 13.2 11.9 9.8 80 1.8 ESE 7 9 4 5 - - -
18/01:00am 13.6 12.5 10.0 79 1.9 ESE 6 7 3 4 - - -
18/12:30am 14.1 12.8 10.1 77 2.1 E 7 9 4 5 - - -
18/12:00am 14.4 13.2 10.4 77 2.1 ENE 7 9 4 5 - - -
 
Date/Time
WST
Temp
°C
App
Temp
°C
Dew
Point
Rel
Hum
%
Delta-T
°C
Wind Press
QNH
hPa
Press
MSL
hPa
Rain
since 9 am
mm
Dir
 
Spd
km/h
Gust
km/h
Spd
kts
Gust
kts
17/11:30pm 14.6 13.6 10.4 76 2.3 E 6 7 3 4 - - -
17/11:00pm 15.0 13.5 10.4 74 2.5 E 9 9 5 5 - - -
17/10:30pm 15.1 14.2 10.5 74 2.5 E 6 7 3 4 - - -
17/10:00pm 15.6 14.4 10.4 71 2.8 E 7 9 4 5 - - -
17/09:30pm 15.7 14.6 10.7 72 2.7 ESE 7 9 4 5 - - -
17/09:00pm 16.8 15.3 10.4 66 3.5 ENE 9 13 5 7 - - -
17/08:30pm 16.7 15.2 10.5 67 3.4 ENE 9 11 5 6 - - -
17/08:00pm 16.8 15.3 10.6 67 3.4 NE 9 11 5 6 - - -
17/07:30pm 17.3 16.1 10.2 63 3.9 ENE 7 7 4 4 - - -
17/07:00pm 17.8 16.6 10.4 62 4.1 NE 7 9 4 5 - - -
17/06:30pm 18.4 17.1 10.0 58 4.6 ENE 7 11 4 6 - - -
17/06:00pm 18.9 17.2 9.7 55 5.0 ENE 9 13 5 7 - - -
17/05:30pm 19.7 17.2 9.6 52 5.5 ENE 13 19 7 10 - - -
17/05:00pm 20.4 17.0 9.3 49 6.0 ENE 17 24 9 13 - - -
17/04:30pm 21.4 18.1 9.6 47 6.5 E 17 26 9 14 - - -
17/04:00pm 21.4 18.5 9.6 47 6.5 E 15 24 8 13 - - -
17/03:30pm 21.1 18.1 9.4 47 6.4 ESE 15 22 8 12 - - -
17/03:00pm 21.1 18.4 10.3 50 6.0 ESE 15 22 8 12 - - -
17/02:30pm 21.4 18.9 11.1 52 5.8 E 15 22 8 12 - - -
17/02:00pm 21.3 18.5 11.3 53 5.7 E 17 24 9 13 - - -
17/01:30pm 19.9 17.4 11.1 57 4.9 E 15 24 8 13 - - -
17/01:00pm 19.5 17.2 10.5 56 5.0 E 13 20 7 11 - - -
17/12:30pm 19.2 16.3 11.0 59 4.6 E 17 26 9 14 - - -
17/12:00pm 18.6 16.1 10.9 61 4.3 E 15 24 8 13 - - -
17/11:30am 17.8 14.9 11.1 65 3.7 E 17 26 9 14 - - -
17/11:00am 17.4 14.3 11.7 69 3.2 ENE 19 26 10 14 - - -
17/10:30am 16.1 13.4 11.7 75 2.4 E 17 26 9 14 - - -
17/10:00am 15.7 14.0 12.5 81 1.8 ESE 13 19 7 10 - - -
17/09:52am 15.2 13.1 12.5 84 1.5 E 15 20 8 11 - - -
17/09:30am 14.2 12.3 12.9 92 0.7 E 15 20 8 11 - - -
17/09:00am 13.7 11.9 13.4 98 0.2 E 15 22 8 12 - - -
17/08:46am 13.2 10.9 12.9 98 0.2 E 17 24 9 13 - - -
17/08:30am 13.3 11.0 13.0 98 0.2 E 17 28 9 15 - - -
17/08:00am 13.4 10.8 13.1 98 0.2 ENE 19 24 10 13 - - -
17/07:58am 13.2 10.5 12.9 98 0.2 ENE 19 26 10 14 - - -
17/07:46am 13.4 10.8 13.1 98 0.2 ENE 19 24 10 13 - - -
17/07:30am 13.2 10.5 13.0 99 0.1 E 19 28 10 15 - - -
17/07:00am 13.1 10.7 12.8 98 0.2 E 17 22 9 12 - - -
17/06:50am 13.0 10.6 12.7 98 0.2 E 17 28 9 15 - - -
17/06:30am 13.2 10.9 12.9 98 0.2 E 17 24 9 13 - - -
17/06:29am 13.2 10.9 12.9 98 0.2 E 17 24 9 13 - - -
17/06:00am 13.4 11.1 13.1 98 0.2 E 17 24 9 13 - - -
17/05:58am 13.4 11.5 12.9 97 0.3 E 15 24 8 13 - - -
17/05:30am 14.0 11.2 12.6 91 0.8 E 19 28 10 15 - - -
17/05:00am 14.1 11.2 13.0 93 0.6 ESE 20 32 11 17 - - -
17/04:30am 14.1 11.8 13.0 93 0.6 ESE 17 28 9 15 - - -
17/04:02am 14.3 12.0 12.9 91 0.8 ESE 17 24 9 13 - - -
17/04:00am 14.3 12.0 12.9 91 0.8 ESE 17 28 9 15 - - -
17/03:58am 14.3 12.0 12.9 91 0.8 ESE 17 28 9 15 - - -
17/03:30am 14.8 12.0 12.5 86 1.3 ESE 19 30 10 16 - - -
17/03:00am 14.9 12.5 12.8 87 1.2 ESE 17 30 9 16 - - -
17/02:30am 14.8 13.0 13.3 91 0.9 ESE 15 20 8 11 - - -
17/02:18am 14.8 12.6 13.2 90 0.9 ESE 17 24 9 13 - - -
17/02:16am 14.8 12.6 13.2 90 0.9 ESE 17 24 9 13 - - -
17/02:00am 14.9 12.3 13.1 89 1.0 ESE 19 28 10 15 - - -
17/01:45am 15.2 12.4 13.1 87 1.2 SE 20 32 11 17 - - -
17/01:30am 15.2 13.3 13.1 87 1.2 ESE 15 22 8 12 - - -
17/01:03am 15.3 13.4 13.1 87 1.3 ESE 15 24 8 13 - - -
17/01:00am 15.2 13.0 13.2 88 1.1 ESE 17 24 9 13 - - -
17/12:30am 15.3 13.4 13.1 87 1.3 ESE 15 24 8 13 - - -
17/12:00am 15.4 13.1 13.1 86 1.3 E 17 26 9 14 - - -
 
Date/Time
WST
Temp
°C
App
Temp
°C
Dew
Point
Rel
Hum
%
Delta-T
°C
Wind Press
QNH
hPa
Press
MSL
hPa
Rain
since 9 am
mm
Dir
 
Spd
km/h
Gust
km/h
Spd
kts
Gust
kts
16/11:47pm 15.4 13.1 13.1 86 1.3 ESE 17 24 9 13 - - -
16/11:30pm 15.5 12.8 12.8 84 1.5 ESE 19 28 10 15 - - -
16/11:00pm 16.0 12.2 12.4 79 2.0 ESE 24 32 13 17 - - -
16/10:30pm 16.1 14.1 12.7 80 1.9 ESE 15 24 8 13 - - -
16/10:00pm 16.1 13.7 12.7 80 1.9 ESE 17 24 9 13 - - -
16/09:30pm 16.1 12.7 12.5 79 2.0 ESE 22 30 12 16 - - -
16/09:00pm 16.1 12.3 12.5 79 2.0 SE 24 32 13 17 - - -
16/08:30pm 16.1 12.3 12.5 79 2.0 SE 24 32 13 17 - - -
16/08:00pm 16.4 11.9 12.6 78 2.2 SE 28 37 15 20 - - -
16/07:30pm 16.7 12.6 12.8 78 2.2 SE 26 33 14 18 - - -
16/07:00pm 16.5 14.0 13.4 82 1.8 SE 19 24 10 13 - - -
16/06:30pm 16.6 14.3 13.1 80 2.0 SE 17 22 9 12 - - -
16/06:00pm 17.7 14.0 12.6 72 2.9 SE 24 32 13 17 - - -
16/05:30pm 18.1 15.4 13.0 72 2.9 SE 19 22 10 12 - - -
16/05:00pm 18.7 15.5 11.8 64 3.9 ESE 20 30 11 16 - - -
16/04:30pm 19.0 15.8 11.8 63 4.1 ESE 20 28 11 15 - - -
16/04:00pm 18.9 15.6 11.7 63 4.1 ESE 20 26 11 14 - - -
16/03:30pm 18.8 15.3 12.3 66 3.7 ESE 22 32 12 17 - - -
16/03:00pm 18.8 15.0 12.3 66 3.7 ESE 24 30 13 16 - - -
16/02:30pm 19.1 16.1 12.4 65 3.8 ESE 20 28 11 15 - - -
16/02:00pm 18.2 14.4 13.5 74 2.7 SE 26 37 14 20 - - -
16/01:30pm 18.0 14.9 13.3 74 2.7 SE 22 26 12 14 - - -
16/01:00pm 17.0 14.4 13.7 81 1.9 SE 20 28 11 15 - - -
16/12:30pm 16.8 13.7 13.3 80 2.0 SE 22 32 12 17 - - -
16/12:00pm 17.5 14.2 12.8 74 2.7 SE 22 32 12 17 - - -
16/11:30am 18.7 15.9 12.7 68 3.4 ESE 19 26 10 14 - - -
16/11:00am 17.8 14.8 11.8 68 3.4 ESE 19 30 10 16 - - -
16/10:30am 17.7 14.4 11.7 68 3.4 SE 20 32 11 17 - - -
16/10:00am 17.6 13.1 11.4 67 3.5 SE 26 33 14 18 - - -
16/09:30am 17.1 11.5 11.6 70 3.1 ESE 32 41 17 22 - - -
16/09:00am 16.5 12.0 11.4 72 2.8 ESE 26 33 14 18 - - -
16/08:30am 16.5 13.0 12.1 75 2.5 ESE 22 32 12 17 - - -
16/08:00am 16.3 12.5 12.3 77 2.3 ESE 24 35 13 19 - - -
16/07:30am 15.6 11.6 11.8 78 2.1 SE 24 30 13 16 - - -
16/07:00am 15.6 13.4 12.0 79 2.0 ESE 15 22 8 12 - - -
16/06:30am 15.6 12.0 11.8 78 2.1 ESE 22 32 12 17 - - -
16/06:00am 15.8 11.7 11.4 75 2.4 ESE 24 35 13 19 - - -
16/05:30am 15.9 12.6 11.7 76 2.3 ESE 20 30 11 16 - - -
16/05:00am 15.8 12.1 11.4 75 2.4 ESE 22 35 12 19 - - -
16/04:30am 15.8 12.4 11.2 74 2.5 ESE 20 28 11 15 - - -
16/04:00am 15.8 10.9 11.2 74 2.5 ESE 28 35 15 19 - - -
16/03:30am 16.0 11.9 11.4 74 2.5 SE 24 35 13 19 - - -
16/03:00am 15.9 11.9 11.7 76 2.3 SE 24 33 13 18 - - -
16/02:30am 15.8 12.1 11.6 76 2.3 SE 22 30 12 16 - - -
16/02:00am 16.3 11.8 11.5 73 2.7 SE 26 35 14 19 - - -
16/01:30am 16.7 13.0 11.4 71 2.9 SE 22 32 12 17 - - -
16/01:00am 16.9 13.5 11.4 70 3.1 ESE 20 26 11 14 - - -
16/12:30am 17.0 13.7 11.5 70 3.1 ESE 20 30 11 16 - - -
16/12:00am 16.9 13.9 12.4 75 2.5 SE 20 28 11 15 - - -
 
Date/Time
WST
Temp
°C
App
Temp
°C
Dew
Point
Rel
Hum
%
Delta-T
°C
Wind Press
QNH
hPa
Press
MSL
hPa
Rain
since 9 am
mm
Dir
 
Spd
km/h
Gust
km/h
Spd
kts
Gust
kts
15/11:30pm 17.4 14.4 12.7 74 2.7 SE 20 26 11 14 - - -
15/11:00pm 17.5 14.5 12.6 73 2.8 SE 20 26 11 14 - - -
15/10:30pm 17.6 14.2 12.5 72 2.9 SSE 22 30 12 16 - - -
15/10:00pm 17.8 14.7 12.3 70 3.1 SSE 20 28 11 15 - - -
15/09:30pm 18.3 14.2 11.6 65 3.8 SE 24 35 13 19 - - -

Other Formats:

Comma delimited format used in spreadsheet applications
http://www.bom.gov.au/fwo/IDW60801/IDW60801.95448.axf

JavaScript Object Notation format (JSON) in row-major order
http://www.bom.gov.au/fwo/IDW60801/IDW60801.95448.json